sensor_id;sensor_type;location;lat;lon;timestamp;P1;durP1;ratioP1;P2;durP2;ratioP2
14096;SDS011;7125;48.106;11.544;2023-06-05T00:00:31;10.85;;;6.18;;
14096;SDS011;7125;48.106;11.544;2023-06-05T00:02:58;8.10;;;4.63;;
14096;SDS011;7125;48.106;11.544;2023-06-05T00:05:25;4.53;;;4.13;;
14096;SDS011;7125;48.106;11.544;2023-06-05T00:07:52;9.52;;;4.80;;
14096;SDS011;7125;48.106;11.544;2023-06-05T00:10:19;5.72;;;4.25;;
14096;SDS011;7125;48.106;11.544;2023-06-05T00:12:47;6.20;;;4.60;;
14096;SDS011;7125;48.106;11.544;2023-06-05T00:15:14;5.15;;;4.55;;
14096;SDS011;7125;48.106;11.544;2023-06-05T00:17:42;7.95;;;4.60;;
14096;SDS011;7125;48.106;11.544;2023-06-05T00:20:10;5.55;;;3.50;;
14096;SDS011;7125;48.106;11.544;2023-06-05T00:22:37;4.82;;;4.43;;
14096;SDS011;7125;48.106;11.544;2023-06-05T00:25:07;4.72;;;4.13;;
14096;SDS011;7125;48.106;11.544;2023-06-05T00:27:34;6.60;;;4.97;;
14096;SDS011;7125;48.106;11.544;2023-06-05T00:30:01;5.65;;;4.85;;
14096;SDS011;7125;48.106;11.544;2023-06-05T00:32:29;6.00;;;5.22;;
14096;SDS011;7125;48.106;11.544;2023-06-05T00:34:58;5.65;;;5.03;;
14096;SDS011;7125;48.106;11.544;2023-06-05T00:37:25;6.68;;;5.50;;
14096;SDS011;7125;48.106;11.544;2023-06-05T00:39:53;5.10;;;4.45;;
14096;SDS011;7125;48.106;11.544;2023-06-05T00:42:20;5.88;;;5.28;;
14096;SDS011;7125;48.106;11.544;2023-06-05T00:44:46;6.05;;;5.10;;
14096;SDS011;7125;48.106;11.544;2023-06-05T00:47:14;6.40;;;5.68;;
14096;SDS011;7125;48.106;11.544;2023-06-05T00:49:41;6.95;;;4.97;;
14096;SDS011;7125;48.106;11.544;2023-06-05T00:52:10;6.43;;;5.10;;
14096;SDS011;7125;48.106;11.544;2023-06-05T00:54:38;4.97;;;4.57;;
14096;SDS011;7125;48.106;11.544;2023-06-05T00:57:06;6.32;;;4.88;;
14096;SDS011;7125;48.106;11.544;2023-06-05T00:59:34;12.63;;;5.63;;
14096;SDS011;7125;48.106;11.544;2023-06-05T01:02:02;9.05;;;6.38;;
14096;SDS011;7125;48.106;11.544;2023-06-05T01:04:31;5.72;;;5.32;;
14096;SDS011;7125;48.106;11.544;2023-06-05T01:06:58;6.35;;;5.50;;
14096;SDS011;7125;48.106;11.544;2023-06-05T01:09:27;7.07;;;6.22;;
14096;SDS011;7125;48.106;11.544;2023-06-05T01:11:58;7.20;;;6.13;;
14096;SDS011;7125;48.106;11.544;2023-06-05T01:14:27;8.93;;;6.28;;
14096;SDS011;7125;48.106;11.544;2023-06-05T01:16:58;6.93;;;6.18;;
14096;SDS011;7125;48.106;11.544;2023-06-05T01:19:28;6.65;;;5.80;;
14096;SDS011;7125;48.106;11.544;2023-06-05T01:21:56;10.48;;;6.03;;
14096;SDS011;7125;48.106;11.544;2023-06-05T01:24:24;7.32;;;5.82;;
14096;SDS011;7125;48.106;11.544;2023-06-05T01:26:54;6.30;;;5.72;;
14096;SDS011;7125;48.106;11.544;2023-06-05T01:29:34;9.15;;;5.70;;
14096;SDS011;7125;48.106;11.544;2023-06-05T01:32:08;9.65;;;6.65;;
14096;SDS011;7125;48.106;11.544;2023-06-05T01:34:41;5.97;;;5.18;;
14096;SDS011;7125;48.106;11.544;2023-06-05T01:37:09;7.03;;;5.40;;
14096;SDS011;7125;48.106;11.544;2023-06-05T01:39:41;6.88;;;6.07;;
14096;SDS011;7125;48.106;11.544;2023-06-05T01:42:10;12.45;;;6.57;;
14096;SDS011;7125;48.106;11.544;2023-06-05T01:44:38;10.25;;;7.30;;
14096;SDS011;7125;48.106;11.544;2023-06-05T01:47:07;8.05;;;7.25;;
14096;SDS011;7125;48.106;11.544;2023-06-05T01:49:35;8.18;;;6.28;;
14096;SDS011;7125;48.106;11.544;2023-06-05T01:52:02;7.85;;;6.05;;
14096;SDS011;7125;48.106;11.544;2023-06-05T01:54:29;7.18;;;6.47;;
14096;SDS011;7125;48.106;11.544;2023-06-05T01:56:59;7.75;;;7.03;;
14096;SDS011;7125;48.106;11.544;2023-06-05T01:59:29;8.35;;;7.10;;
14096;SDS011;7125;48.106;11.544;2023-06-05T02:01:58;10.90;;;7.05;;
14096;SDS011;7125;48.106;11.544;2023-06-05T02:04:25;8.07;;;7.32;;
14096;SDS011;7125;48.106;11.544;2023-06-05T02:06:52;8.35;;;7.45;;
14096;SDS011;7125;48.106;11.544;2023-06-05T02:09:19;7.60;;;7.00;;
14096;SDS011;7125;48.106;11.544;2023-06-05T02:11:46;11.20;;;6.57;;
14096;SDS011;7125;48.106;11.544;2023-06-05T02:14:19;7.82;;;7.10;;
14096;SDS011;7125;48.106;11.544;2023-06-05T02:16:48;8.65;;;7.43;;
14096;SDS011;7125;48.106;11.544;2023-06-05T02:19:15;8.18;;;7.20;;
14096;SDS011;7125;48.106;11.544;2023-06-05T02:21:43;13.15;;;6.85;;
14096;SDS011;7125;48.106;11.544;2023-06-05T02:24:10;9.00;;;7.72;;
14096;SDS011;7125;48.106;11.544;2023-06-05T02:26:37;7.65;;;6.88;;
14096;SDS011;7125;48.106;11.544;2023-06-05T02:29:04;9.68;;;7.72;;
14096;SDS011;7125;48.106;11.544;2023-06-05T02:31:33;7.18;;;6.57;;
14096;SDS011;7125;48.106;11.544;2023-06-05T02:34:01;9.00;;;7.38;;
14096;SDS011;7125;48.106;11.544;2023-06-05T02:36:29;7.95;;;7.15;;
14096;SDS011;7125;48.106;11.544;2023-06-05T02:38:58;8.50;;;7.07;;
14096;SDS011;7125;48.106;11.544;2023-06-05T02:41:26;9.75;;;7.40;;
14096;SDS011;7125;48.106;11.544;2023-06-05T02:43:53;7.93;;;7.13;;
14096;SDS011;7125;48.106;11.544;2023-06-05T02:46:21;7.45;;;6.75;;
14096;SDS011;7125;48.106;11.544;2023-06-05T02:48:51;7.63;;;6.90;;
14096;SDS011;7125;48.106;11.544;2023-06-05T02:51:18;8.10;;;7.32;;
14096;SDS011;7125;48.106;11.544;2023-06-05T02:53:46;10.30;;;7.95;;
14096;SDS011;7125;48.106;11.544;2023-06-05T02:56:16;10.48;;;7.15;;
14096;SDS011;7125;48.106;11.544;2023-06-05T02:58:44;8.18;;;7.43;;
14096;SDS011;7125;48.106;11.544;2023-06-05T03:01:12;7.88;;;7.18;;
14096;SDS011;7125;48.106;11.544;2023-06-05T03:03:43;9.90;;;7.55;;
14096;SDS011;7125;48.106;11.544;2023-06-05T03:06:16;8.82;;;7.82;;
14096;SDS011;7125;48.106;11.544;2023-06-05T03:08:47;9.32;;;7.03;;
14096;SDS011;7125;48.106;11.544;2023-06-05T03:11:18;8.45;;;7.65;;
14096;SDS011;7125;48.106;11.544;2023-06-05T03:13:45;8.68;;;7.65;;
14096;SDS011;7125;48.106;11.544;2023-06-05T03:16:13;9.52;;;7.95;;
14096;SDS011;7125;48.106;11.544;2023-06-05T03:18:45;8.60;;;7.83;;
14096;SDS011;7125;48.106;11.544;2023-06-05T03:21:13;10.10;;;7.73;;
14096;SDS011;7125;48.106;11.544;2023-06-05T03:23:42;9.20;;;8.30;;
14096;SDS011;7125;48.106;11.544;2023-06-05T03:26:11;8.52;;;7.72;;
14096;SDS011;7125;48.106;11.544;2023-06-05T03:28:38;8.63;;;7.93;;
14096;SDS011;7125;48.106;11.544;2023-06-05T03:31:08;9.77;;;8.30;;
14096;SDS011;7125;48.106;11.544;2023-06-05T03:33:41;8.30;;;7.60;;
14096;SDS011;7125;48.106;11.544;2023-06-05T03:36:09;10.00;;;9.10;;
14096;SDS011;7125;48.106;11.544;2023-06-05T03:38:36;10.07;;;8.07;;
14096;SDS011;7125;48.106;11.544;2023-06-05T03:41:04;10.05;;;9.20;;
14096;SDS011;7125;48.106;11.544;2023-06-05T03:43:31;9.35;;;8.18;;
14096;SDS011;7125;48.106;11.544;2023-06-05T03:45:59;10.05;;;7.93;;
14096;SDS011;7125;48.106;11.544;2023-06-05T03:48:26;9.20;;;8.30;;
14096;SDS011;7125;48.106;11.544;2023-06-05T03:50:53;8.75;;;8.07;;
14096;SDS011;7125;48.106;11.544;2023-06-05T03:53:21;9.38;;;8.50;;
14096;SDS011;7125;48.106;11.544;2023-06-05T03:55:48;10.37;;;8.57;;
14096;SDS011;7125;48.106;11.544;2023-06-05T03:58:24;9.77;;;8.37;;
14096;SDS011;7125;48.106;11.544;2023-06-05T04:00:55;9.00;;;8.20;;
14096;SDS011;7125;48.106;11.544;2023-06-05T04:03:22;9.87;;;8.87;;
14096;SDS011;7125;48.106;11.544;2023-06-05T04:05:54;9.43;;;8.17;;
14096;SDS011;7125;48.106;11.544;2023-06-05T04:08:21;9.40;;;8.50;;
14096;SDS011;7125;48.106;11.544;2023-06-05T04:10:48;11.67;;;8.80;;
14096;SDS011;7125;48.106;11.544;2023-06-05T04:13:16;12.00;;;9.60;;
14096;SDS011;7125;48.106;11.544;2023-06-05T04:15:45;9.60;;;8.70;;
14096;SDS011;7125;48.106;11.544;2023-06-05T04:18:14;8.40;;;7.63;;
14096;SDS011;7125;48.106;11.544;2023-06-05T04:20:41;10.77;;;9.03;;
14096;SDS011;7125;48.106;11.544;2023-06-05T04:23:09;10.40;;;8.53;;
14096;SDS011;7125;48.106;11.544;2023-06-05T04:25:41;9.57;;;8.75;;
14096;SDS011;7125;48.106;11.544;2023-06-05T04:28:10;10.35;;;9.38;;
14096;SDS011;7125;48.106;11.544;2023-06-05T04:30:37;9.57;;;8.70;;
14096;SDS011;7125;48.106;11.544;2023-06-05T04:33:06;12.27;;;9.83;;
14096;SDS011;7125;48.106;11.544;2023-06-05T04:35:37;13.33;;;9.23;;
14096;SDS011;7125;48.106;11.544;2023-06-05T04:38:03;11.03;;;9.93;;
14096;SDS011;7125;48.106;11.544;2023-06-05T04:40:30;10.20;;;9.30;;
14096;SDS011;7125;48.106;11.544;2023-06-05T04:42:59;10.05;;;9.07;;
14096;SDS011;7125;48.106;11.544;2023-06-05T04:45:26;11.00;;;9.90;;
14096;SDS011;7125;48.106;11.544;2023-06-05T04:47:54;14.82;;;9.05;;
14096;SDS011;7125;48.106;11.544;2023-06-05T04:50:22;10.55;;;8.23;;
14096;SDS011;7125;48.106;11.544;2023-06-05T04:52:53;11.02;;;10.02;;
14096;SDS011;7125;48.106;11.544;2023-06-05T04:55:21;10.18;;;8.77;;
14096;SDS011;7125;48.106;11.544;2023-06-05T04:57:51;11.80;;;9.00;;
14096;SDS011;7125;48.106;11.544;2023-06-05T05:00:19;14.57;;;8.80;;
14096;SDS011;7125;48.106;11.544;2023-06-05T05:02:47;10.70;;;9.10;;
14096;SDS011;7125;48.106;11.544;2023-06-05T05:05:16;10.35;;;8.90;;
14096;SDS011;7125;48.106;11.544;2023-06-05T05:07:46;14.48;;;10.55;;
14096;SDS011;7125;48.106;11.544;2023-06-05T05:10:13;12.45;;;9.85;;
14096;SDS011;7125;48.106;11.544;2023-06-05T05:12:40;11.40;;;8.63;;
14096;SDS011;7125;48.106;11.544;2023-06-05T05:15:08;10.65;;;9.70;;
14096;SDS011;7125;48.106;11.544;2023-06-05T05:17:35;9.52;;;8.63;;
14096;SDS011;7125;48.106;11.544;2023-06-05T05:20:02;11.18;;;8.52;;
14096;SDS011;7125;48.106;11.544;2023-06-05T05:22:32;9.60;;;8.63;;
14096;SDS011;7125;48.106;11.544;2023-06-05T05:25:00;10.70;;;8.30;;
14096;SDS011;7125;48.106;11.544;2023-06-05T05:27:28;10.00;;;9.10;;
14096;SDS011;7125;48.106;11.544;2023-06-05T05:29:56;10.38;;;8.77;;
14096;SDS011;7125;48.106;11.544;2023-06-05T05:32:23;8.88;;;7.97;;
14096;SDS011;7125;48.106;11.544;2023-06-05T05:34:51;11.50;;;9.27;;
14096;SDS011;7125;48.106;11.544;2023-06-05T05:37:18;11.02;;;8.88;;
14096;SDS011;7125;48.106;11.544;2023-06-05T05:39:46;10.45;;;7.85;;
14096;SDS011;7125;48.106;11.544;2023-06-05T05:42:15;9.23;;;8.43;;
14096;SDS011;7125;48.106;11.544;2023-06-05T05:44:43;10.55;;;8.88;;
14096;SDS011;7125;48.106;11.544;2023-06-05T05:47:10;10.68;;;8.82;;
14096;SDS011;7125;48.106;11.544;2023-06-05T05:49:37;17.05;;;10.40;;
14096;SDS011;7125;48.106;11.544;2023-06-05T05:52:04;12.07;;;9.50;;
14096;SDS011;7125;48.106;11.544;2023-06-05T05:54:31;8.95;;;8.10;;
14096;SDS011;7125;48.106;11.544;2023-06-05T05:56:58;10.80;;;9.13;;
14096;SDS011;7125;48.106;11.544;2023-06-05T05:59:26;9.50;;;7.93;;
14096;SDS011;7125;48.106;11.544;2023-06-05T06:01:53;10.73;;;9.57;;
14096;SDS011;7125;48.106;11.544;2023-06-05T06:04:21;9.80;;;8.63;;
14096;SDS011;7125;48.106;11.544;2023-06-05T06:06:48;11.00;;;9.02;;
14096;SDS011;7125;48.106;11.544;2023-06-05T06:09:17;8.23;;;7.38;;
14096;SDS011;7125;48.106;11.544;2023-06-05T06:11:44;9.98;;;8.93;;
14096;SDS011;7125;48.106;11.544;2023-06-05T06:14:11;12.93;;;8.60;;
14096;SDS011;7125;48.106;11.544;2023-06-05T06:16:39;9.10;;;8.25;;
14096;SDS011;7125;48.106;11.544;2023-06-05T06:19:08;9.43;;;8.50;;
14096;SDS011;7125;48.106;11.544;2023-06-05T06:21:39;15.68;;;9.13;;
14096;SDS011;7125;48.106;11.544;2023-06-05T06:24:06;8.75;;;7.85;;
14096;SDS011;7125;48.106;11.544;2023-06-05T06:26:33;11.57;;;7.72;;
14096;SDS011;7125;48.106;11.544;2023-06-05T06:29:01;11.05;;;9.05;;
14096;SDS011;7125;48.106;11.544;2023-06-05T06:31:28;9.63;;;7.80;;
14096;SDS011;7125;48.106;11.544;2023-06-05T06:33:56;10.05;;;8.50;;
14096;SDS011;7125;48.106;11.544;2023-06-05T06:36:24;9.52;;;8.07;;
14096;SDS011;7125;48.106;11.544;2023-06-05T06:38:52;8.98;;;7.85;;
14096;SDS011;7125;48.106;11.544;2023-06-05T06:41:19;13.38;;;8.63;;
14096;SDS011;7125;48.106;11.544;2023-06-05T06:43:46;9.07;;;8.18;;
14096;SDS011;7125;48.106;11.544;2023-06-05T06:46:13;11.77;;;7.22;;
14096;SDS011;7125;48.106;11.544;2023-06-05T06:48:40;11.35;;;8.05;;
14096;SDS011;7125;48.106;11.544;2023-06-05T06:51:08;11.00;;;8.55;;
14096;SDS011;7125;48.106;11.544;2023-06-05T06:53:35;11.32;;;9.45;;
14096;SDS011;7125;48.106;11.544;2023-06-05T06:56:02;9.10;;;7.90;;
14096;SDS011;7125;48.106;11.544;2023-06-05T06:58:30;10.38;;;9.23;;
14096;SDS011;7125;48.106;11.544;2023-06-05T07:00:56;9.40;;;8.50;;
14096;SDS011;7125;48.106;11.544;2023-06-05T07:03:23;8.82;;;8.10;;
14096;SDS011;7125;48.106;11.544;2023-06-05T07:05:50;8.63;;;7.70;;
14096;SDS011;7125;48.106;11.544;2023-06-05T07:08:19;11.10;;;7.07;;
14096;SDS011;7125;48.106;11.544;2023-06-05T07:10:46;8.35;;;7.55;;
14096;SDS011;7125;48.106;11.544;2023-06-05T07:13:13;10.20;;;6.88;;
14096;SDS011;7125;48.106;11.544;2023-06-05T07:15:40;8.13;;;7.32;;
14096;SDS011;7125;48.106;11.544;2023-06-05T07:18:07;8.57;;;7.80;;
14096;SDS011;7125;48.106;11.544;2023-06-05T07:20:35;10.93;;;8.40;;
14096;SDS011;7125;48.106;11.544;2023-06-05T07:23:03;8.98;;;8.10;;
14096;SDS011;7125;48.106;11.544;2023-06-05T07:25:31;13.90;;;7.50;;
14096;SDS011;7125;48.106;11.544;2023-06-05T07:27:58;10.57;;;8.18;;
14096;SDS011;7125;48.106;11.544;2023-06-05T07:30:25;10.82;;;7.43;;
14096;SDS011;7125;48.106;11.544;2023-06-05T07:32:53;7.18;;;6.40;;
14096;SDS011;7125;48.106;11.544;2023-06-05T07:35:20;8.15;;;7.40;;
14096;SDS011;7125;48.106;11.544;2023-06-05T07:37:49;7.65;;;6.85;;
14096;SDS011;7125;48.106;11.544;2023-06-05T07:40:16;8.63;;;7.78;;
14096;SDS011;7125;48.106;11.544;2023-06-05T07:42:45;11.10;;;7.45;;
14096;SDS011;7125;48.106;11.544;2023-06-05T07:45:12;9.00;;;8.30;;
14096;SDS011;7125;48.106;11.544;2023-06-05T07:47:39;8.52;;;7.78;;
14096;SDS011;7125;48.106;11.544;2023-06-05T07:50:06;9.32;;;7.47;;
14096;SDS011;7125;48.106;11.544;2023-06-05T07:52:35;7.53;;;6.85;;
14096;SDS011;7125;48.106;11.544;2023-06-05T07:55:02;10.27;;;9.27;;
14096;SDS011;7125;48.106;11.544;2023-06-05T07:57:29;9.23;;;7.60;;
14096;SDS011;7125;48.106;11.544;2023-06-05T07:59:58;12.02;;;7.35;;
14096;SDS011;7125;48.106;11.544;2023-06-05T08:02:26;9.52;;;7.95;;
14096;SDS011;7125;48.106;11.544;2023-06-05T08:04:53;8.00;;;6.88;;
14096;SDS011;7125;48.106;11.544;2023-06-05T08:07:20;8.05;;;7.25;;
14096;SDS011;7125;48.106;11.544;2023-06-05T08:09:47;8.13;;;7.32;;
14096;SDS011;7125;48.106;11.544;2023-06-05T08:12:14;9.88;;;7.47;;
14096;SDS011;7125;48.106;11.544;2023-06-05T08:14:40;8.30;;;7.50;;
14096;SDS011;7125;48.106;11.544;2023-06-05T08:17:09;9.90;;;8.90;;
14096;SDS011;7125;48.106;11.544;2023-06-05T08:19:36;7.25;;;6.55;;
14096;SDS011;7125;48.106;11.544;2023-06-05T08:22:03;8.02;;;7.30;;
14096;SDS011;7125;48.106;11.544;2023-06-05T08:24:30;8.10;;;6.93;;
14096;SDS011;7125;48.106;11.544;2023-06-05T08:26:57;7.13;;;6.43;;
14096;SDS011;7125;48.106;11.544;2023-06-05T08:29:25;7.97;;;6.47;;
14096;SDS011;7125;48.106;11.544;2023-06-05T08:31:52;8.13;;;7.00;;
14096;SDS011;7125;48.106;11.544;2023-06-05T08:34:21;8.98;;;6.75;;
14096;SDS011;7125;48.106;11.544;2023-06-05T08:36:49;6.13;;;5.63;;
14096;SDS011;7125;48.106;11.544;2023-06-05T08:39:16;6.95;;;6.25;;
14096;SDS011;7125;48.106;11.544;2023-06-05T08:41:43;9.38;;;6.43;;
14096;SDS011;7125;48.106;11.544;2023-06-05T08:44:11;8.25;;;6.00;;
14096;SDS011;7125;48.106;11.544;2023-06-05T08:46:38;10.60;;;6.45;;
14096;SDS011;7125;48.106;11.544;2023-06-05T08:49:07;6.95;;;6.25;;
14096;SDS011;7125;48.106;11.544;2023-06-05T08:51:38;10.80;;;6.95;;
14096;SDS011;7125;48.106;11.544;2023-06-05T08:54:06;6.53;;;6.00;;
14096;SDS011;7125;48.106;11.544;2023-06-05T08:56:37;6.65;;;5.60;;
14096;SDS011;7125;48.106;11.544;2023-06-05T08:59:05;9.13;;;6.35;;
14096;SDS011;7125;48.106;11.544;2023-06-05T09:01:32;6.90;;;6.25;;
14096;SDS011;7125;48.106;11.544;2023-06-05T09:04:00;8.57;;;6.10;;
14096;SDS011;7125;48.106;11.544;2023-06-05T09:06:27;7.40;;;6.70;;
14096;SDS011;7125;48.106;11.544;2023-06-05T09:08:59;6.13;;;5.45;;
14096;SDS011;7125;48.106;11.544;2023-06-05T09:11:27;6.50;;;5.85;;
14096;SDS011;7125;48.106;11.544;2023-06-05T09:13:55;7.85;;;5.93;;
14096;SDS011;7125;48.106;11.544;2023-06-05T09:16:32;7.22;;;6.55;;
14096;SDS011;7125;48.106;11.544;2023-06-05T09:19:00;7.35;;;6.65;;
14096;SDS011;7125;48.106;11.544;2023-06-05T09:21:28;6.53;;;5.90;;
14096;SDS011;7125;48.106;11.544;2023-06-05T09:24:13;7.07;;;6.07;;
14096;SDS011;7125;48.106;11.544;2023-06-05T09:26:52;7.47;;;5.68;;
14096;SDS011;7125;48.106;11.544;2023-06-05T09:29:21;7.68;;;5.30;;
14096;SDS011;7125;48.106;11.544;2023-06-05T09:31:50;5.28;;;4.55;;
14096;SDS011;7125;48.106;11.544;2023-06-05T09:34:22;5.03;;;4.63;;
14096;SDS011;7125;48.106;11.544;2023-06-05T09:36:49;6.70;;;5.80;;
14096;SDS011;7125;48.106;11.544;2023-06-05T09:39:18;6.32;;;5.78;;
14096;SDS011;7125;48.106;11.544;2023-06-05T09:41:46;6.07;;;5.53;;
14096;SDS011;7125;48.106;11.544;2023-06-05T09:44:16;6.53;;;5.88;;
14096;SDS011;7125;48.106;11.544;2023-06-05T09:46:50;6.13;;;5.35;;
14096;SDS011;7125;48.106;11.544;2023-06-05T09:49:23;8.32;;;5.70;;
14096;SDS011;7125;48.106;11.544;2023-06-05T09:51:51;6.47;;;5.05;;
14096;SDS011;7125;48.106;11.544;2023-06-05T09:54:20;5.95;;;5.40;;
14096;SDS011;7125;48.106;11.544;2023-06-05T09:56:48;6.30;;;5.70;;
14096;SDS011;7125;48.106;11.544;2023-06-05T09:59:20;8.25;;;5.97;;
14096;SDS011;7125;48.106;11.544;2023-06-05T10:01:49;7.07;;;5.50;;
14096;SDS011;7125;48.106;11.544;2023-06-05T10:04:18;6.40;;;5.53;;
14096;SDS011;7125;48.106;11.544;2023-06-05T10:06:49;6.72;;;6.00;;
14096;SDS011;7125;48.106;11.544;2023-06-05T10:09:17;6.70;;;6.10;;
14096;SDS011;7125;48.106;11.544;2023-06-05T10:11:48;6.47;;;5.80;;
14096;SDS011;7125;48.106;11.544;2023-06-05T10:14:16;8.90;;;5.80;;
14096;SDS011;7125;48.106;11.544;2023-06-05T10:16:43;8.18;;;5.63;;
14096;SDS011;7125;48.106;11.544;2023-06-05T10:19:14;8.30;;;5.55;;
14096;SDS011;7125;48.106;11.544;2023-06-05T10:21:43;6.82;;;4.97;;
14096;SDS011;7125;48.106;11.544;2023-06-05T10:24:13;9.57;;;5.07;;
14096;SDS011;7125;48.106;11.544;2023-06-05T10:27:04;8.30;;;5.70;;
14096;SDS011;7125;48.106;11.544;2023-06-05T10:30:01;7.00;;;4.57;;
14096;SDS011;7125;48.106;11.544;2023-06-05T10:32:50;5.35;;;4.85;;
14096;SDS011;7125;48.106;11.544;2023-06-05T10:35:30;8.10;;;6.00;;
14096;SDS011;7125;48.106;11.544;2023-06-05T10:38:11;7.15;;;4.63;;
14096;SDS011;7125;48.106;11.544;2023-06-05T10:40:46;6.00;;;5.43;;
14096;SDS011;7125;48.106;11.544;2023-06-05T10:43:26;6.78;;;5.28;;
14096;SDS011;7125;48.106;11.544;2023-06-05T10:45:54;4.90;;;4.45;;
14096;SDS011;7125;48.106;11.544;2023-06-05T10:48:21;5.15;;;4.70;;
14096;SDS011;7125;48.106;11.544;2023-06-05T10:54:07;5.78;;;4.45;;
14096;SDS011;7125;48.106;11.544;2023-06-05T10:56:54;6.22;;;5.30;;
14096;SDS011;7125;48.106;11.544;2023-06-05T10:59:25;5.78;;;5.00;;
14096;SDS011;7125;48.106;11.544;2023-06-05T11:05:05;6.35;;;5.72;;
14096;SDS011;7125;48.106;11.544;2023-06-05T11:07:36;5.32;;;4.80;;
14096;SDS011;7125;48.106;11.544;2023-06-05T11:10:05;9.23;;;5.75;;
14096;SDS011;7125;48.106;11.544;2023-06-05T11:12:54;5.60;;;5.13;;
14096;SDS011;7125;48.106;11.544;2023-06-05T11:15:36;6.07;;;5.45;;
14096;SDS011;7125;48.106;11.544;2023-06-05T11:20:53;5.13;;;4.65;;
14096;SDS011;7125;48.106;11.544;2023-06-05T11:23:23;5.40;;;4.90;;
14096;SDS011;7125;48.106;11.544;2023-06-05T11:25:53;4.97;;;4.50;;
14096;SDS011;7125;48.106;11.544;2023-06-05T11:28:41;7.30;;;4.57;;
14096;SDS011;7125;48.106;11.544;2023-06-05T11:31:10;11.98;;;5.45;;
14096;SDS011;7125;48.106;11.544;2023-06-05T11:33:38;5.97;;;5.20;;
14096;SDS011;7125;48.106;11.544;2023-06-05T11:36:05;5.50;;;5.00;;
14096;SDS011;7125;48.106;11.544;2023-06-05T11:38:37;6.22;;;5.03;;
14096;SDS011;7125;48.106;11.544;2023-06-05T11:41:08;5.97;;;4.97;;
14096;SDS011;7125;48.106;11.544;2023-06-05T11:43:42;13.10;;;5.82;;
14096;SDS011;7125;48.106;11.544;2023-06-05T11:46:10;6.32;;;5.10;;
14096;SDS011;7125;48.106;11.544;2023-06-05T11:48:46;8.73;;;5.45;;
14096;SDS011;7125;48.106;11.544;2023-06-05T11:51:13;7.60;;;5.18;;
14096;SDS011;7125;48.106;11.544;2023-06-05T11:53:44;9.85;;;4.80;;
14096;SDS011;7125;48.106;11.544;2023-06-05T11:56:14;6.03;;;5.43;;
14096;SDS011;7125;48.106;11.544;2023-06-05T11:58:42;6.13;;;4.93;;
14096;SDS011;7125;48.106;11.544;2023-06-05T12:01:12;5.05;;;4.65;;
14096;SDS011;7125;48.106;11.544;2023-06-05T12:03:42;5.38;;;4.57;;
14096;SDS011;7125;48.106;11.544;2023-06-05T12:06:10;4.47;;;4.07;;
14096;SDS011;7125;48.106;11.544;2023-06-05T12:08:39;5.45;;;4.45;;
14096;SDS011;7125;48.106;11.544;2023-06-05T12:11:19;5.50;;;5.10;;
14096;SDS011;7125;48.106;11.544;2023-06-05T12:13:48;8.27;;;4.65;;
14096;SDS011;7125;48.106;11.544;2023-06-05T12:16:17;7.75;;;4.75;;
14096;SDS011;7125;48.106;11.544;2023-06-05T12:18:46;6.85;;;4.65;;
14096;SDS011;7125;48.106;11.544;2023-06-05T12:21:21;4.97;;;4.43;;
14096;SDS011;7125;48.106;11.544;2023-06-05T12:23:48;5.00;;;4.50;;
14096;SDS011;7125;48.106;11.544;2023-06-05T12:26:15;6.72;;;4.78;;
14096;SDS011;7125;48.106;11.544;2023-06-05T12:28:43;5.88;;;4.43;;
14096;SDS011;7125;48.106;11.544;2023-06-05T12:34:02;6.25;;;3.83;;
14096;SDS011;7125;48.106;11.544;2023-06-05T12:36:30;6.05;;;4.93;;
14096;SDS011;7125;48.106;11.544;2023-06-05T12:39:01;5.47;;;4.97;;
14096;SDS011;7125;48.106;11.544;2023-06-05T12:41:30;6.50;;;5.22;;
14096;SDS011;7125;48.106;11.544;2023-06-05T12:43:58;4.93;;;4.30;;
14096;SDS011;7125;48.106;11.544;2023-06-05T12:46:26;6.10;;;5.55;;
14096;SDS011;7125;48.106;11.544;2023-06-05T12:48:54;4.85;;;4.45;;
14096;SDS011;7125;48.106;11.544;2023-06-05T12:51:22;6.60;;;4.32;;
14096;SDS011;7125;48.106;11.544;2023-06-05T12:53:51;4.13;;;3.83;;
14096;SDS011;7125;48.106;11.544;2023-06-05T12:56:18;5.07;;;4.15;;
14096;SDS011;7125;48.106;11.544;2023-06-05T12:58:48;4.68;;;4.28;;
14096;SDS011;7125;48.106;11.544;2023-06-05T13:01:15;5.32;;;4.28;;
14096;SDS011;7125;48.106;11.544;2023-06-05T13:03:42;7.32;;;4.88;;
14096;SDS011;7125;48.106;11.544;2023-06-05T13:06:11;5.28;;;4.78;;
14096;SDS011;7125;48.106;11.544;2023-06-05T13:08:38;4.93;;;4.50;;
14096;SDS011;7125;48.106;11.544;2023-06-05T13:11:05;6.05;;;4.30;;
14096;SDS011;7125;48.106;11.544;2023-06-05T13:13:31;5.22;;;4.25;;
14096;SDS011;7125;48.106;11.544;2023-06-05T13:15:59;4.70;;;4.28;;
14096;SDS011;7125;48.106;11.544;2023-06-05T13:18:26;4.70;;;3.90;;
14096;SDS011;7125;48.106;11.544;2023-06-05T13:20:54;6.05;;;5.47;;
14096;SDS011;7125;48.106;11.544;2023-06-05T13:23:22;4.88;;;4.50;;
14096;SDS011;7125;48.106;11.544;2023-06-05T13:25:49;7.55;;;4.88;;
14096;SDS011;7125;48.106;11.544;2023-06-05T13:28:16;4.95;;;4.10;;
14096;SDS011;7125;48.106;11.544;2023-06-05T13:30:43;4.88;;;4.38;;
14096;SDS011;7125;48.106;11.544;2023-06-05T13:33:12;4.85;;;4.47;;
14096;SDS011;7125;48.106;11.544;2023-06-05T13:35:39;5.97;;;4.15;;
14096;SDS011;7125;48.106;11.544;2023-06-05T13:38:06;5.60;;;4.75;;
14096;SDS011;7125;48.106;11.544;2023-06-05T13:40:35;4.28;;;3.75;;
14096;SDS011;7125;48.106;11.544;2023-06-05T13:43:01;4.25;;;3.95;;
14096;SDS011;7125;48.106;11.544;2023-06-05T13:45:29;5.53;;;4.03;;
14096;SDS011;7125;48.106;11.544;2023-06-05T13:47:59;6.07;;;4.10;;
14096;SDS011;7125;48.106;11.544;2023-06-05T13:50:26;4.65;;;4.25;;
14096;SDS011;7125;48.106;11.544;2023-06-05T13:52:53;5.45;;;3.88;;
14096;SDS011;7125;48.106;11.544;2023-06-05T13:55:20;5.22;;;4.05;;
14096;SDS011;7125;48.106;11.544;2023-06-05T13:57:48;7.05;;;4.18;;
14096;SDS011;7125;48.106;11.544;2023-06-05T14:00:15;5.68;;;3.85;;
14096;SDS011;7125;48.106;11.544;2023-06-05T14:02:43;6.47;;;3.88;;
14096;SDS011;7125;48.106;11.544;2023-06-05T14:05:10;4.22;;;3.78;;
14096;SDS011;7125;48.106;11.544;2023-06-05T14:07:37;4.90;;;4.00;;
14096;SDS011;7125;48.106;11.544;2023-06-05T14:10:04;6.97;;;3.90;;
14096;SDS011;7125;48.106;11.544;2023-06-05T14:12:32;7.60;;;3.70;;
14096;SDS011;7125;48.106;11.544;2023-06-05T14:15:00;4.30;;;3.30;;
14096;SDS011;7125;48.106;11.544;2023-06-05T14:17:27;4.15;;;3.85;;
14096;SDS011;7125;48.106;11.544;2023-06-05T14:19:54;3.88;;;3.30;;
14096;SDS011;7125;48.106;11.544;2023-06-05T14:22:21;3.50;;;3.20;;
14096;SDS011;7125;48.106;11.544;2023-06-05T14:24:48;3.60;;;3.22;;
14096;SDS011;7125;48.106;11.544;2023-06-05T14:27:15;3.50;;;3.15;;
14096;SDS011;7125;48.106;11.544;2023-06-05T14:29:43;4.32;;;4.03;;
14096;SDS011;7125;48.106;11.544;2023-06-05T14:32:11;5.13;;;3.13;;
14096;SDS011;7125;48.106;11.544;2023-06-05T14:34:38;4.68;;;3.65;;
14096;SDS011;7125;48.106;11.544;2023-06-05T14:37:05;4.05;;;3.72;;
14096;SDS011;7125;48.106;11.544;2023-06-05T14:39:32;3.97;;;3.33;;
14096;SDS011;7125;48.106;11.544;2023-06-05T14:41:59;3.25;;;3.00;;
14096;SDS011;7125;48.106;11.544;2023-06-05T14:44:27;3.78;;;3.47;;
14096;SDS011;7125;48.106;11.544;2023-06-05T14:46:54;4.15;;;3.75;;
14096;SDS011;7125;48.106;11.544;2023-06-05T14:49:23;6.20;;;3.30;;
14096;SDS011;7125;48.106;11.544;2023-06-05T14:51:50;4.28;;;3.85;;
14096;SDS011;7125;48.106;11.544;2023-06-05T14:54:17;4.60;;;3.63;;
14096;SDS011;7125;48.106;11.544;2023-06-05T14:56:44;3.85;;;3.53;;
14096;SDS011;7125;48.106;11.544;2023-06-05T14:59:12;3.47;;;3.17;;
14096;SDS011;7125;48.106;11.544;2023-06-05T15:01:46;3.45;;;3.15;;
14096;SDS011;7125;48.106;11.544;2023-06-05T15:04:12;3.53;;;3.25;;
14096;SDS011;7125;48.106;11.544;2023-06-05T15:06:41;3.60;;;3.33;;